Schelle, Belgium
Current Conditions -  °F | °C
As of 7:20 AM on Friday 31 Oct 2014 (Local Time) from EBAW Reporting Station
Light Fog Light Fog  
Wind Chill: 46°   Ceiling: Unl
Heat Index: 46°   Visibility: 4mi
Dew Point: 45°   Wind: 3mph
Humidity: 93%   Direction: 140°SE
Pressure: 30.15"   Gusts: NA
Location:  51.13°N, 4.34°E
Report Text: EBAW 310620Z 14003KT 7000 MIFG NSC 08/07 Q1021 NOSIG
Loading
Personal Weather Stations






























Interactive Weather Map
Tropical Storm Tracking
New forecast layout! Learn more

10-Day Weather Forecast

Advertisements
Track Severe Weather on mobile